Accueil
METAR-TAF:

METAR-TAF

Aéroports :

Aéroport Sandro-Pertini de Turin Caselle

Turin, Italie

latitude: 45-13N, longitude: 007-39E, altitude: 301 m

Observation

Le bulletin a été fait il y a 24 minutes, à 00:20 UTC
Vent 3 kt de ouest/nord-ouest
Température 2°C
Humidité 80%
Pression 1022 hPa
Visibilité: 5000 m
brume

METAR: LIMF 260020Z 29003KT 5000 BR NSC 02/M01 Q1022

Heure: 01:44 (00:44 UTC)

Prévision

Le bulletin a été fait il y a 1 heure et 44 minutes, à 23:00 UTC
Prévision valable du 26 à 00 UTC au 26 à 24 UTC
Vent 5 kt de direction variable
Visibilité: 6000 m
Temporairement
du 26 à 02 UTC au 26 à 08 UTC
Visibilité: 2000 m
bancs de brouillard

TAF: LIMF 252300Z 2600/2624 VRB05KT 6000 NSC TEMPO 2602/2608 2000 BCFG

Observations et prévisions météorologiques de plus de 4000 aéroports (messages METAR et TAF).

Les stations disponibles sont représentées par des disques jaunes et rouges sur la carte.

Passer la souris dessus pour voir le nom de la station.

Cliquer dessus pour voir les observations et prévisions météorologiques.

Pour changer de carte: cliquez sur les boutons verts avec une croix noire pour zoomer, sur le bouton vert avec un tiret pour effectuer un zoom arrière, ou sur les flèches vertes pour les cartes adjacentes.


METAR-TAF: